createdAt,value
2018-02-01T00:01:11.279Z,1.70
2018-02-01T00:03:39.702Z,1.20
2018-02-01T00:06:07.407Z,1.40
2018-02-01T00:08:35.157Z,1.30
2018-02-01T00:11:03.644Z,2.20
2018-02-01T00:13:32.331Z,2.70
2018-02-01T00:16:00.094Z,5.70
2018-02-01T00:18:27.877Z,1.57
2018-02-01T00:20:55.519Z,1.00
2018-02-01T00:23:23.181Z,1.10
2018-02-01T00:25:50.827Z,2.10
2018-02-01T00:28:18.439Z,1.90
2018-02-01T00:30:46.129Z,9.93
2018-02-01T00:33:14.511Z,2.00
2018-02-01T00:35:42.310Z,1.10
2018-02-01T00:38:09.988Z,2.20
2018-02-01T00:40:37.678Z,2.00
2018-02-01T00:43:06.128Z,0.97
2018-02-01T00:45:33.749Z,3.40
2018-02-01T00:48:01.392Z,2.83
2018-02-01T00:50:29.800Z,3.90
2018-02-01T00:52:57.426Z,2.50
2018-02-01T00:55:25.869Z,1.57
2018-02-01T00:57:53.524Z,4.03
2018-02-01T01:00:21.255Z,3.80
2018-02-01T01:02:48.962Z,3.10
2018-02-01T01:05:16.577Z,3.80
2018-02-01T01:07:44.986Z,10.33
2018-02-01T01:10:12.773Z,3.33
2018-02-01T01:12:40.421Z,3.00
2018-02-01T01:15:08.094Z,2.53
2018-02-01T01:17:35.702Z,2.70
2018-02-01T01:20:04.135Z,3.27
2018-02-01T01:22:31.816Z,5.40
2018-02-01T01:24:59.654Z,1.60
2018-02-01T01:27:27.279Z,1.37
2018-02-01T01:29:55.679Z,2.67
2018-02-01T01:32:23.370Z,1.30
2018-02-01T01:34:51.022Z,4.23
2018-02-01T01:37:18.694Z,2.13
2018-02-01T01:39:46.363Z,2.27
2018-02-01T01:42:14.008Z,1.27
2018-02-01T01:44:41.671Z,3.47
2018-02-01T01:47:09.291Z,1.50
2018-02-01T01:49:37.719Z,1.87
2018-02-01T01:52:05.330Z,3.00
2018-02-01T01:54:33.747Z,1.77
2018-02-01T01:57:01.360Z,3.80
2018-02-01T01:59:29.742Z,2.50
2018-02-01T02:01:58.150Z,3.60
2018-02-01T02:04:25.766Z,6.37
2018-02-01T02:06:53.410Z,1.97
2018-02-01T02:09:21.015Z,2.80
2018-02-01T02:11:49.410Z,2.53
2018-02-01T02:14:17.023Z,3.80
2018-02-01T02:16:46.210Z,7.93
2018-02-01T02:19:13.960Z,3.20
2018-02-01T02:21:41.567Z,1.90
2018-02-01T02:24:09.983Z,2.67
2018-02-01T02:26:37.592Z,2.90
2018-02-01T02:29:05.263Z,3.27
2018-02-01T02:31:32.900Z,2.33
2018-02-01T02:34:00.561Z,2.53
2018-02-01T02:36:28.222Z,3.10
2018-02-01T02:38:55.850Z,6.83
2018-02-01T02:41:23.491Z,3.80
2018-02-01T02:43:51.876Z,3.47
2018-02-01T02:46:19.524Z,5.30
2018-02-01T02:48:47.967Z,3.03
2018-02-01T02:51:15.580Z,2.53
2018-02-01T02:53:43.996Z,4.00
2018-02-01T02:56:11.611Z,4.53
2018-02-01T02:58:40.013Z,3.17
2018-02-01T03:01:07.633Z,3.50
2018-02-01T03:03:35.242Z,4.60
2018-02-01T03:06:02.880Z,4.07
2018-02-01T03:08:30.511Z,3.20
2018-02-01T03:10:58.985Z,4.53
2018-02-01T03:13:26.630Z,9.50
2018-02-01T03:15:54.246Z,5.27
2018-02-01T03:18:22.658Z,3.80
2018-02-01T03:20:50.270Z,3.40
2018-02-01T03:23:17.919Z,5.73
2018-02-01T03:25:46.478Z,5.30
2018-02-01T03:28:14.086Z,7.90
2018-02-01T03:30:42.491Z,7.63
2018-02-01T03:33:10.104Z,5.20
2018-02-01T03:35:37.842Z,5.63
2018-02-01T03:38:05.448Z,6.37
2018-02-01T03:40:33.834Z,11.10
2018-02-01T03:43:02.239Z,8.83
2018-02-01T03:45:30.032Z,7.77
2018-02-01T03:47:57.670Z,6.63
2018-02-01T03:50:25.287Z,3.70
2018-02-01T03:52:52.895Z,3.60
2018-02-01T03:55:20.543Z,8.23
2018-02-01T03:57:48.165Z,7.60
2018-02-01T04:00:15.813Z,6.93
2018-02-01T04:02:43.456Z,6.53
2018-02-01T04:05:11.098Z,7.57
2018-02-01T04:07:38.887Z,7.90
2018-02-01T04:10:06.499Z,5.63
2018-02-01T04:12:34.902Z,6.60
2018-02-01T04:15:02.516Z,6.20
2018-02-01T04:17:30.987Z,6.93
2018-02-01T04:19:58.611Z,6.03
2018-02-01T04:22:26.231Z,9.53
2018-02-01T04:24:53.863Z,9.60
2018-02-01T04:27:21.471Z,5.60
2018-02-01T04:29:49.879Z,7.80
2018-02-01T04:32:17.491Z,8.43
2018-02-01T04:34:45.117Z,6.60
2018-02-01T04:37:12.782Z,6.73
2018-02-01T04:39:40.443Z,8.47
2018-02-01T04:42:08.084Z,7.50
2018-02-01T04:44:35.707Z,5.00
2018-02-01T04:47:03.350Z,5.23
2018-02-01T04:49:31.003Z,9.00
2018-02-01T04:51:58.790Z,8.53
2018-02-01T04:54:26.422Z,9.87
2018-02-01T04:56:54.055Z,8.27
2018-02-01T04:59:21.860Z,6.73
2018-02-01T05:01:49.482Z,11.17
2018-02-01T05:04:17.138Z,7.27
2018-02-01T05:06:44.742Z,10.90
2018-02-01T05:09:12.597Z,16.33
2018-02-01T05:11:40.252Z,15.77
2018-02-01T05:14:07.882Z,10.33
2018-02-01T05:16:36.316Z,6.30
2018-02-01T05:19:03.927Z,8.93
2018-02-01T05:21:31.639Z,7.70
2018-02-01T05:23:59.246Z,9.23
2018-02-01T05:26:27.627Z,10.10
2018-02-01T05:28:56.030Z,8.37
2018-02-01T05:31:23.652Z,14.07
2018-02-01T05:33:52.046Z,5.90
2018-02-01T05:36:20.490Z,8.50
2018-02-01T05:38:48.219Z,9.70
2018-02-01T05:41:15.831Z,6.90
2018-02-01T05:43:43.456Z,9.63
2018-02-01T05:46:11.100Z,6.67
2018-02-01T05:48:38.773Z,9.90
2018-02-01T05:51:06.457Z,10.07
2018-02-01T05:53:34.071Z,12.50
2018-02-01T05:56:01.783Z,11.23
2018-02-01T05:58:29.410Z,12.63
2018-02-01T06:00:57.062Z,11.37
2018-02-01T06:03:24.679Z,10.47
2018-02-01T06:05:53.829Z,14.60
2018-02-01T06:08:21.470Z,9.97
2018-02-01T06:10:49.839Z,15.40
2018-02-01T06:13:18.257Z,10.53
2018-02-01T06:15:45.870Z,9.20
2018-02-01T06:18:13.516Z,12.47
2018-02-01T06:20:41.138Z,12.10
2018-02-01T06:23:08.791Z,12.20
2018-02-01T06:25:36.407Z,8.30
2018-02-01T06:28:04.015Z,14.77
2018-02-01T06:30:31.658Z,20.27
2018-02-01T06:33:00.034Z,10.30
2018-02-01T06:35:28.561Z,16.50
2018-02-01T06:37:56.167Z,12.63
2018-02-01T06:40:24.595Z,10.73
2018-02-01T06:42:52.398Z,13.90
2018-02-01T06:45:20.075Z,13.83
2018-02-01T06:47:48.530Z,13.17
2018-02-01T06:50:16.167Z,10.37
2018-02-01T06:52:43.802Z,13.47
2018-02-01T06:55:11.422Z,13.57
2018-02-01T06:57:39.067Z,19.97
2018-02-01T07:00:06.676Z,8.17
2018-02-01T07:02:35.102Z,11.93
2018-02-01T07:05:02.718Z,17.17
2018-02-01T07:07:31.114Z,18.83
2018-02-01T07:09:58.726Z,12.80
2018-02-01T07:12:26.371Z,21.23
2018-02-01T07:14:54.038Z,10.67
2018-02-01T07:17:21.664Z,12.57
2018-02-01T07:19:49.310Z,13.50
2018-02-01T07:22:17.689Z,16.80
2018-02-01T07:24:46.147Z,9.73
2018-02-01T07:27:13.758Z,17.90
2018-02-01T07:29:41.398Z,13.77
2018-02-01T07:32:09.013Z,15.43
2018-02-01T07:34:36.650Z,15.80
2018-02-01T07:37:04.278Z,18.20
2018-02-01T07:39:32.411Z,20.80
2018-02-01T07:42:00.033Z,30.10
2018-02-01T07:44:27.694Z,11.93
2018-02-01T07:47:15.208Z,14.13
2018-02-01T07:49:42.818Z,24.23
2018-02-01T07:52:10.470Z,17.37
2018-02-01T07:54:38.158Z,14.67
2018-02-01T07:57:06.587Z,19.20
2018-02-01T07:59:34.216Z,20.77
2018-02-01T08:02:02.687Z,16.60
2018-02-01T08:04:30.326Z,18.57
2018-02-01T08:06:58.088Z,15.70
2018-02-01T08:09:25.744Z,22.77
2018-02-01T08:11:53.371Z,18.63
2018-02-01T08:14:21.019Z,18.20
2018-02-01T08:16:49.418Z,13.40
2018-02-01T08:19:17.311Z,15.93
2018-02-01T08:21:44.952Z,12.70
2018-02-01T08:24:12.558Z,17.43
2018-02-01T08:26:40.962Z,15.77
2018-02-01T08:29:09.422Z,21.20
2018-02-01T08:31:37.066Z,21.57
2018-02-01T08:34:04.723Z,17.13
2018-02-01T08:36:32.391Z,13.50
2018-02-01T08:39:00.041Z,25.07
2018-02-01T08:41:27.656Z,18.67
2018-02-01T08:43:56.066Z,24.73
2018-02-01T08:46:23.674Z,6.77
2018-02-01T08:48:51.425Z,15.40
2018-02-01T08:51:19.192Z,16.27
2018-02-01T08:53:46.847Z,30.47
2018-02-01T08:56:14.464Z,22.40
2018-02-01T08:58:42.098Z,11.83
2018-02-01T09:01:10.495Z,23.57
2018-02-01T09:03:38.888Z,25.30
2018-02-01T09:06:06.544Z,10.50
2018-02-01T09:08:34.158Z,17.57
2018-02-01T09:11:01.802Z,15.73
2018-02-01T09:13:29.415Z,25.83
2018-02-01T09:15:57.843Z,15.63
2018-02-01T09:18:25.453Z,15.27
2018-02-01T09:20:53.187Z,19.80
2018-02-01T09:23:20.808Z,21.43
2018-02-01T09:25:48.459Z,23.60
2018-02-01T09:28:16.835Z,12.30
2018-02-01T09:30:45.210Z,18.57
2018-02-01T09:33:13.614Z,22.90
2018-02-01T09:35:41.231Z,17.03
2018-02-01T09:38:08.896Z,21.67
2018-02-01T09:40:37.559Z,22.23
2018-02-01T09:43:05.210Z,19.70
2018-02-01T09:45:32.814Z,17.97
2018-02-01T09:48:01.261Z,16.30
2018-02-01T09:50:28.886Z,17.37
2018-02-01T09:52:56.572Z,16.73
2018-02-01T09:55:24.350Z,18.13
2018-02-01T09:57:52.018Z,16.10
2018-02-01T10:00:19.677Z,26.80
2018-02-01T10:02:47.325Z,21.43
2018-02-01T10:05:15.007Z,8.67
2018-02-01T10:07:42.762Z,11.87
2018-02-01T10:10:10.422Z,8.27
2018-02-01T10:12:38.100Z,10.90
2018-02-01T10:15:06.491Z,20.37
2018-02-01T10:17:34.235Z,16.10
2018-02-01T10:20:02.099Z,17.10
2018-02-01T10:22:29.979Z,20.50
2018-02-01T10:24:57.640Z,21.77
2018-02-01T10:27:25.525Z,17.80
2018-02-01T10:29:54.083Z,17.80
2018-02-01T10:32:21.704Z,25.10
2018-02-01T10:34:49.352Z,19.73
2018-02-01T10:37:17.748Z,16.97
2018-02-01T10:39:45.442Z,16.93
2018-02-01T10:42:13.061Z,13.67
2018-02-01T10:44:40.683Z,11.67
2018-02-01T10:47:09.827Z,16.40
2018-02-01T10:49:37.515Z,12.20
2018-02-01T10:52:05.151Z,14.73
2018-02-01T10:54:32.838Z,8.97
2018-02-01T10:57:00.510Z,12.00
2018-02-01T10:59:28.126Z,9.57
2018-02-01T11:01:56.506Z,23.63
2018-02-01T11:04:24.160Z,13.87
2018-02-01T11:06:52.536Z,11.33
2018-02-01T11:09:20.941Z,14.43
2018-02-01T11:11:48.639Z,9.50
2018-02-01T11:14:16.406Z,18.93
2018-02-01T11:16:44.026Z,12.20
2018-02-01T11:19:11.634Z,15.57
2018-02-01T11:21:40.825Z,18.17
2018-02-01T11:24:08.426Z,9.40
2018-02-01T11:26:36.842Z,8.30
2018-02-01T11:29:04.455Z,8.93
2018-02-01T11:31:32.297Z,18.23
2018-02-01T11:34:00.057Z,11.20
2018-02-01T11:36:27.900Z,10.13
2018-02-01T11:38:55.795Z,14.93
2018-02-01T11:41:23.668Z,12.20
2018-02-01T11:43:51.466Z,9.77
2018-02-01T11:46:20.221Z,12.07
2018-02-01T11:48:48.186Z,6.90
2018-02-01T11:51:16.056Z,6.87
2018-02-01T11:53:43.928Z,3.77
2018-02-01T11:56:11.796Z,11.90
2018-02-01T11:58:39.747Z,6.80
2018-02-01T12:01:07.416Z,11.80
2018-02-01T12:03:35.029Z,23.07
2018-02-01T12:06:02.687Z,8.30
2018-02-01T12:08:31.059Z,6.90
2018-02-01T12:10:59.437Z,17.53
2018-02-01T12:13:27.877Z,15.40
2018-02-01T12:15:55.488Z,4.90
2018-02-01T12:18:23.895Z,22.70
2018-02-01T12:20:51.580Z,6.77
2018-02-01T12:23:19.228Z,13.53
2018-02-01T12:25:47.001Z,8.97
2018-02-01T12:28:14.643Z,7.53
2018-02-01T12:30:42.254Z,6.73
2018-02-01T12:33:09.894Z,13.67
2018-02-01T12:35:37.506Z,8.93
2018-02-01T12:38:05.906Z,10.17
2018-02-01T12:40:34.869Z,14.00
2018-02-01T12:43:03.514Z,7.50
2018-02-01T12:45:31.126Z,10.80
2018-02-01T12:47:59.496Z,14.63
2018-02-01T12:50:27.931Z,13.30
2018-02-01T12:52:55.550Z,16.10
2018-02-01T12:55:23.175Z,7.63
2018-02-01T12:57:50.909Z,7.23
2018-02-01T13:00:18.550Z,9.90
2018-02-01T13:02:46.156Z,9.07
2018-02-01T13:05:13.792Z,10.57
2018-02-01T13:07:41.410Z,15.80
2018-02-01T13:10:09.828Z,6.93
2018-02-01T13:12:37.443Z,13.27
2018-02-01T13:15:05.821Z,10.23
2018-02-01T13:17:34.222Z,11.17
2018-02-01T13:20:01.917Z,3.43
2018-02-01T13:22:29.578Z,18.37
2018-02-01T13:24:57.194Z,5.60
2018-02-01T13:27:25.648Z,11.33
2018-02-01T13:29:54.767Z,11.73
2018-02-01T13:32:23.183Z,10.37
2018-02-01T13:34:50.811Z,9.10
2018-02-01T13:37:19.186Z,10.13
2018-02-01T13:39:47.599Z,3.67
2018-02-01T13:42:15.204Z,11.43
2018-02-01T13:44:43.609Z,10.83
2018-02-01T13:47:11.987Z,11.57
2018-02-01T13:49:40.414Z,7.47
2018-02-01T13:52:08.023Z,11.33
2018-02-01T13:54:35.626Z,11.00
2018-02-01T13:57:03.255Z,7.20
2018-02-01T13:59:31.638Z,10.83
2018-02-01T14:02:00.164Z,9.23
2018-02-01T14:04:27.775Z,5.67
2018-02-01T14:06:56.184Z,12.67
2018-02-01T14:09:23.869Z,15.93
2018-02-01T14:11:51.491Z,16.60
2018-02-01T14:14:19.138Z,14.80
2018-02-01T14:16:47.526Z,10.43
2018-02-01T14:19:15.931Z,5.80
2018-02-01T14:21:43.550Z,13.23
2018-02-01T14:24:11.198Z,9.20
2018-02-01T14:26:38.844Z,4.20
2018-02-01T14:29:06.463Z,8.30
2018-02-01T14:31:34.171Z,5.73
2018-02-01T14:34:01.766Z,7.60
2018-02-01T14:36:30.174Z,14.63
2018-02-01T14:38:57.778Z,8.20
2018-02-01T14:41:25.424Z,8.77
2018-02-01T14:43:53.030Z,4.10
2018-02-01T14:46:21.536Z,6.03
2018-02-01T14:48:49.142Z,7.03
2018-02-01T14:51:16.790Z,10.70
2018-02-01T14:53:44.397Z,6.23
2018-02-01T14:56:12.860Z,4.47
2018-02-01T14:58:40.584Z,4.63
2018-02-01T15:01:08.222Z,10.37
2018-02-01T15:03:36.666Z,5.50
2018-02-01T15:06:04.305Z,9.03
2018-02-01T15:08:31.922Z,12.23
2018-02-01T15:11:00.595Z,10.23
2018-02-01T15:13:29.017Z,4.27
2018-02-01T15:15:56.637Z,12.70
2018-02-01T15:18:25.031Z,8.43
2018-02-01T15:20:53.402Z,13.17
2018-02-01T15:23:21.807Z,9.90
2018-02-01T15:25:49.427Z,4.50
2018-02-01T15:28:17.070Z,13.13
2018-02-01T15:30:44.938Z,4.40
2018-02-01T15:33:12.578Z,5.77
2018-02-01T15:35:40.367Z,8.40
2018-02-01T15:38:08.007Z,12.40
2018-02-01T15:40:35.635Z,8.40
2018-02-01T15:43:03.284Z,5.90
2018-02-01T15:45:31.663Z,9.47
2018-02-01T15:48:00.067Z,4.70
2018-02-01T15:50:27.752Z,4.77
2018-02-01T15:52:55.362Z,7.00
2018-02-01T15:55:23.916Z,6.00
2018-02-01T15:57:51.575Z,14.63
2018-02-01T16:00:19.447Z,5.30
2018-02-01T16:02:47.054Z,5.33
2018-02-01T16:05:14.666Z,10.27
2018-02-01T16:07:42.516Z,4.67
2018-02-01T16:10:10.203Z,10.07
2018-02-01T16:12:38.610Z,9.53
2018-02-01T16:15:07.164Z,9.17
2018-02-01T16:17:34.775Z,4.63
2018-02-01T16:20:02.468Z,5.53
2018-02-01T16:22:30.333Z,4.87
2018-02-01T16:24:57.970Z,4.10
2018-02-01T16:27:25.581Z,8.43
2018-02-01T16:29:53.226Z,5.70
2018-02-01T16:32:20.869Z,6.97
2018-02-01T16:34:48.486Z,10.70
2018-02-01T16:37:16.886Z,7.97
2018-02-01T16:39:44.498Z,15.80
2018-02-01T16:42:12.260Z,11.67
2018-02-01T16:44:39.918Z,12.00
2018-02-01T16:47:07.580Z,8.13
2018-02-01T16:49:35.187Z,11.97
2018-02-01T16:52:03.619Z,12.40
2018-02-01T16:54:31.238Z,18.00
2018-02-01T16:56:58.888Z,8.93
2018-02-01T16:59:27.268Z,10.80
2018-02-01T17:01:55.667Z,11.87
2018-02-01T17:04:23.283Z,10.40
2018-02-01T17:06:51.145Z,9.53
2018-02-01T17:09:18.778Z,12.43
2018-02-01T17:11:46.418Z,9.33
2018-02-01T17:14:14.020Z,11.70
2018-02-01T17:16:41.719Z,10.57
2018-02-01T17:19:10.298Z,11.07
2018-02-01T17:21:39.037Z,9.50
2018-02-01T17:24:07.102Z,16.23
2018-02-01T17:26:34.714Z,11.87
2018-02-01T17:29:02.362Z,13.07
2018-02-01T17:31:29.987Z,10.07
2018-02-01T17:33:57.639Z,9.97
2018-02-01T17:36:25.257Z,7.13
2018-02-01T17:38:52.899Z,13.57
2018-02-01T17:41:20.550Z,13.23
2018-02-01T17:43:48.165Z,15.13
2018-02-01T17:46:16.921Z,10.00
2018-02-01T17:48:44.778Z,12.13
2018-02-01T17:51:12.537Z,10.93
2018-02-01T17:53:40.320Z,10.70
2018-02-01T17:56:07.948Z,11.30
2018-02-01T17:58:35.579Z,9.93
2018-02-01T18:01:04.306Z,11.73
2018-02-01T18:03:32.594Z,27.60
2018-02-01T18:06:00.360Z,14.17
2018-02-01T18:08:28.023Z,12.53
2018-02-01T18:10:55.652Z,13.20
2018-02-01T18:13:23.275Z,17.50
2018-02-01T18:15:51.682Z,13.30
2018-02-01T18:18:19.298Z,11.10
2018-02-01T18:20:47.056Z,12.17
2018-02-01T18:23:15.986Z,16.00
2018-02-01T18:25:43.751Z,12.70
2018-02-01T18:28:13.917Z,8.30
2018-02-01T18:30:44.046Z,19.00
2018-02-01T18:33:12.343Z,14.87
2018-02-01T18:35:40.011Z,11.27
2018-02-01T18:38:08.391Z,12.70
2018-02-01T18:40:36.929Z,11.70
2018-02-01T18:43:04.570Z,11.60
2018-02-01T18:45:32.192Z,12.57
2018-02-01T18:47:59.933Z,12.00
2018-02-01T18:50:27.608Z,17.77
2018-02-01T18:52:55.258Z,17.20
2018-02-01T18:55:22.892Z,12.33
2018-02-01T18:57:50.512Z,12.10
2018-02-01T19:00:18.935Z,10.97
2018-02-01T19:02:46.552Z,19.87
2018-02-01T19:05:14.290Z,13.67
2018-02-01T19:07:41.939Z,15.10
2018-02-01T19:10:09.584Z,11.10
2018-02-01T19:12:37.193Z,17.57
2018-02-01T19:15:04.810Z,14.77
2018-02-01T19:17:32.467Z,15.17
2018-02-01T19:20:00.149Z,13.60
2018-02-01T19:22:27.797Z,17.47
2018-02-01T19:24:55.406Z,15.10
2018-02-01T19:27:23.050Z,13.40
2018-02-01T19:29:50.710Z,15.87
2018-02-01T19:32:18.367Z,18.90
2018-02-01T19:34:46.023Z,11.77
2018-02-01T19:37:13.636Z,13.70
2018-02-01T19:39:42.043Z,9.73
2018-02-01T19:42:09.657Z,12.67
2018-02-01T19:44:37.290Z,7.13
2018-02-01T19:47:04.911Z,18.23
2018-02-01T19:49:32.532Z,15.40
2018-02-01T19:52:00.167Z,15.13
2018-02-01T19:54:27.839Z,9.87
2018-02-01T19:56:55.487Z,14.97
2018-02-01T19:59:23.120Z,14.00
2018-02-01T20:01:50.782Z,13.87
2018-02-01T20:04:18.390Z,8.67
2018-02-01T20:06:46.012Z,15.13
2018-02-01T20:09:13.651Z,16.63
2018-02-01T20:11:42.035Z,13.50
2018-02-01T20:14:10.438Z,14.70
2018-02-01T20:16:44.483Z,9.60
2018-02-01T20:19:12.127Z,15.67
2018-02-01T20:21:39.746Z,14.07
2018-02-01T20:24:08.134Z,17.37
2018-02-01T20:26:36.572Z,13.80
2018-02-01T20:29:04.217Z,16.40
2018-02-01T20:31:31.983Z,13.70
2018-02-01T20:33:59.611Z,15.57
2018-02-01T20:36:27.267Z,17.50
2018-02-01T20:38:55.733Z,14.27
2018-02-01T20:41:24.116Z,10.77
2018-02-01T20:46:56.798Z,12.63
2018-02-01T20:49:25.952Z,13.77
2018-02-01T20:51:53.574Z,12.70
2018-02-01T20:54:21.998Z,18.07
2018-02-01T20:56:49.629Z,22.53
2018-02-01T20:59:18.019Z,14.40
2018-02-01T21:01:45.661Z,12.40
2018-02-01T21:04:14.052Z,21.00
2018-02-01T21:06:41.699Z,14.33
2018-02-01T21:09:10.081Z,13.97
2018-02-01T21:11:38.613Z,16.23
2018-02-01T21:14:06.225Z,16.73
2018-02-01T21:16:34.609Z,21.30
2018-02-01T21:19:03.035Z,15.60
2018-02-01T21:21:30.648Z,13.33
2018-02-01T21:23:59.085Z,18.97
2018-02-01T21:26:26.697Z,15.37
2018-02-01T21:28:55.124Z,14.10
2018-02-01T21:31:22.795Z,11.77
2018-02-01T21:33:50.402Z,18.53
2018-02-01T21:36:18.810Z,18.37
2018-02-01T21:38:46.426Z,13.70
2018-02-01T21:41:14.834Z,14.10
2018-02-01T21:43:42.536Z,14.43
2018-02-01T21:46:10.302Z,14.70
2018-02-01T21:48:37.917Z,22.00
2018-02-01T21:51:05.644Z,15.87
2018-02-01T21:53:33.381Z,22.97
2018-02-01T21:56:01.015Z,17.60
2018-02-01T21:58:28.664Z,12.27
2018-02-01T22:00:56.336Z,12.00
2018-02-01T22:03:23.987Z,14.80
2018-02-01T22:05:51.612Z,22.37
2018-02-01T22:08:19.276Z,19.17
2018-02-01T22:10:46.912Z,19.27
2018-02-01T22:13:14.518Z,24.20
2018-02-01T22:15:42.930Z,21.13
2018-02-01T22:18:10.638Z,21.10
2018-02-01T22:20:38.306Z,17.60
2018-02-01T22:23:05.926Z,10.67
2018-02-01T22:25:33.609Z,14.83
2018-02-01T22:28:01.366Z,23.60
2018-02-01T22:30:29.461Z,12.97
2018-02-01T22:32:57.327Z,22.50
2018-02-01T22:35:25.186Z,20.17
2018-02-01T22:37:52.851Z,11.70
2018-02-01T22:40:20.463Z,13.70
2018-02-01T22:42:48.117Z,13.57
2018-02-01T22:45:15.760Z,12.17
2018-02-01T22:47:43.370Z,18.20
2018-02-01T22:50:11.006Z,16.27
2018-02-01T22:52:38.639Z,13.67
2018-02-01T22:55:07.392Z,21.03
2018-02-01T22:57:35.001Z,21.33
2018-02-01T23:00:03.656Z,22.80
2018-02-01T23:02:31.263Z,24.33
2018-02-01T23:04:58.914Z,17.50
2018-02-01T23:07:27.358Z,15.13
2018-02-01T23:09:55.018Z,16.63
2018-02-01T23:12:22.667Z,19.00
2018-02-01T23:14:50.347Z,15.60
2018-02-01T23:17:18.003Z,15.53
2018-02-01T23:19:45.612Z,16.03
2018-02-01T23:22:14.048Z,19.00
2018-02-01T23:24:41.700Z,14.63
2018-02-01T23:27:09.321Z,13.80
2018-02-01T23:29:36.962Z,17.13
2018-02-01T23:32:05.393Z,19.00
2018-02-01T23:34:33.072Z,14.40
2018-02-01T23:37:00.704Z,11.67
2018-02-01T23:39:28.331Z,20.30
2018-02-01T23:41:56.878Z,13.77
2018-02-01T23:44:24.583Z,11.27
2018-02-01T23:46:52.990Z,15.43
2018-02-01T23:49:20.605Z,15.27
2018-02-01T23:51:48.294Z,15.80
2018-02-01T23:54:16.932Z,15.47
2018-02-01T23:56:44.557Z,17.27
2018-02-01T23:59:12.264Z,17.90
